Aviation Digital Data Service (ADDS)

Output produced by METARs form (2327 UTC 23 May 2022)
found at http://www.aviationweather.gov/metar/data/
 
EFET 232320Z AUTO 05004KT CAVOK 08/05 Q1010
EFHA 232320Z AUTO 26005KT CAVOK 07/00 Q1011
TAF EFHA 231128Z 2312/2315 31008KT CAVOK
       
EFHK 232320Z 30007KT CAVOK 07/M05 Q1012 NOSIG
TAF EFHK 232022Z 2321/2421 28006KT CAVOK 
     BECMG 2411/2413 21010KT 
     BECMG 2419/2421 VRB02KT
       
EFIV 232320Z AUTO VRB02KT CAVOK 06/03 Q1013
TAF EFIV 231424Z 2315/2318 13005KT 9999 BKN040
       
EFJO 232320Z AUTO 35003KT CAVOK 05/02 Q1012
TAF EFJO 232026Z 2321/2324 04004KT CAVOK
       
EFJY 232320Z AUTO VRB02KT CAVOK 06/03 Q1011
TAF EFJY 232022Z 2321/2421 31003KT CAVOK
       
EFKI 232320Z AUTO 03002KT CAVOK 06/01 Q1013
TAF EFKI 232030Z 2321/2406 12005KT CAVOK
       
EFKE 232320Z AUTO 13005KT CAVOK 03/00 Q1012
TAF EFKE 232030Z 2321/2406 13004KT CAVOK
       
EFKT 232320Z AUTO VRB02KT CAVOK 07/06 Q1011
TAF AMD EFKT 231622Z 2316/2318 12006KT 9999 FEW040 
     TEMPO 2316/2318 FEW040CB 
     PROB30 2316/2318 SHRA
       
EFKK 232320Z AUTO 02002KT CAVOK 02/M01 Q1012
TAF EFKK 232030Z 2321/2406 VRB02KT CAVOK
       
EFKU 232320Z AUTO 07002KT CAVOK 08/05 Q1012
TAF EFKU 232026Z 2321/2421 VRB02KT CAVOK
       
EFKS 232320Z AUTO 06005KT CAVOK 02/00 Q1013
EFLP 232320Z AUTO 06003KT CAVOK 07/02 Q1011
TAF EFLP 231727Z 2318/2321 02005KT CAVOK
       
EFMA 232320Z AUTO VRB01KT CAVOK 03/03 Q1012
TAF EFMA 232022Z 2321/2406 16006KT CAVOK
       
EFMI 232320Z AUTO 00000KT CAVOK 05/03 Q1011
EFOU 232320Z AUTO 12003KT CAVOK 05/00 Q1013
TAF EFOU 232030Z 2321/2421 13003KT CAVOK
       
EFPO 232320Z AUTO VRB01KT 9999 VCSH //////CB 04/M00 Q1012
TAF EFPO 231727Z 2318/2321 26006KT CAVOK
       
EFRO 232320Z AUTO 16005KT CAVOK 08/M00 Q1012
TAF EFRO 232030Z 2321/2421 23006KT CAVOK
       
EFSA 232320Z AUTO 00000KT CAVOK 05/04 Q1012
EFSI 232320Z AUTO 13001KT CAVOK 04/M00 Q1012
EFTP 232320Z AUTO 19001KT CAVOK 05/01 Q1012
TAF EFTP 232022Z 2321/2421 27004KT CAVOK
       
EFTU 232320Z AUTO 08001KT CAVOK 02/M03 Q1013
TAF EFTU 232022Z 2321/2421 22003KT CAVOK
       
EFUT 232320Z AUTO VRB01KT CAVOK 09/03 Q1011
TAF EFUT 231134Z 2312/2315 36007KT CAVOK
       
EFVA 232320Z AUTO 36001KT CAVOK 04/00 Q1012
TAF EFVA 232030Z 2321/2421 19004KT CAVOK